Alice, North Dakota
Current Conditions -  °F | °C
As of 10:35 PM on Saturday 20 Dec 2014 (Local Time) from KBAC Reporting Station
Haze Haze  
Wind Chill: -9°   Ceiling: 300
Heat Index: -3°   Visibility: 4mi
Dew Point: -3°   Wind: 13mph
Humidity: 100%   Direction: 190°S
Pressure: 29.84"   Gusts: 17mph
Location:  46.7681°N, 97.6777°W
Report Text: KBAC 210435Z AUTO 19011G15KT 4SM BR OVC003 M03/M03 A2984 RMK AO2
Loading
Personal Weather Stations






























Interactive Weather Map New forecast layout! Learn more

10-Day Weather Forecast

Advertisements
Track Severe Weather on mobile